sensor_id;sensor_type;location;lat;lon;timestamp;pressure;altitude;pressure_sealevel;temperature;humidity
31483;BME280;18103;52.246;8.052;2023-04-22T00:00:15;99727.22;;;14.43;74.51
31483;BME280;18103;52.246;8.052;2023-04-22T00:02:41;99720.88;;;14.27;76.43
31483;BME280;18103;52.246;8.052;2023-04-22T00:05:09;99727.94;;;14.18;77.03
31483;BME280;18103;52.246;8.052;2023-04-22T00:07:38;99730.34;;;14.30;76.30
31483;BME280;18103;52.246;8.052;2023-04-22T00:10:08;99725.16;;;14.20;76.94
31483;BME280;18103;52.246;8.052;2023-04-22T00:12:33;99720.09;;;14.09;77.15
31483;BME280;18103;52.246;8.052;2023-04-22T00:14:59;99723.28;;;14.12;75.80
31483;BME280;18103;52.246;8.052;2023-04-22T00:17:24;99709.38;;;14.18;75.25
31483;BME280;18103;52.246;8.052;2023-04-22T00:19:55;99719.44;;;14.07;75.45
31483;BME280;18103;52.246;8.052;2023-04-22T00:22:20;99709.97;;;14.04;74.70
31483;BME280;18103;52.246;8.052;2023-04-22T00:24:48;99698.53;;;14.03;73.60
31483;BME280;18103;52.246;8.052;2023-04-22T00:27:13;99711.94;;;13.94;73.92
31483;BME280;18103;52.246;8.052;2023-04-22T00:29:41;99706.47;;;13.95;74.08
31483;BME280;18103;52.246;8.052;2023-04-22T00:32:06;99710.75;;;13.88;73.64
31483;BME280;18103;52.246;8.052;2023-04-22T00:34:32;99717.72;;;13.97;72.24
31483;BME280;18103;52.246;8.052;2023-04-22T00:36:57;99726.53;;;13.98;71.67
31483;BME280;18103;52.246;8.052;2023-04-22T00:39:22;99724.72;;;13.98;71.58
31483;BME280;18103;52.246;8.052;2023-04-22T00:41:48;99740.38;;;13.83;71.17
31483;BME280;18103;52.246;8.052;2023-04-22T00:44:14;99749.00;;;13.59;70.90
31483;BME280;18103;52.246;8.052;2023-04-22T00:46:42;99749.88;;;13.42;70.78
31483;BME280;18103;52.246;8.052;2023-04-22T00:49:10;99752.66;;;13.40;69.64
31483;BME280;18103;52.246;8.052;2023-04-22T00:51:35;99759.63;;;13.41;69.86
31483;BME280;18103;52.246;8.052;2023-04-22T00:54:01;99759.47;;;13.43;69.96
31483;BME280;18103;52.246;8.052;2023-04-22T00:56:29;99737.78;;;13.39;69.54
31483;BME280;18103;52.246;8.052;2023-04-22T00:58:58;99725.31;;;13.58;69.01
31483;BME280;18103;52.246;8.052;2023-04-22T01:01:26;99715.72;;;13.65;71.09
31483;BME280;18103;52.246;8.052;2023-04-22T01:03:55;99701.66;;;13.64;71.79
31483;BME280;18103;52.246;8.052;2023-04-22T01:06:23;99695.84;;;13.43;71.50
31483;BME280;18103;52.246;8.052;2023-04-22T01:08:48;99678.38;;;13.58;71.27
31483;BME280;18103;52.246;8.052;2023-04-22T01:11:16;99668.78;;;13.57;72.31
31483;BME280;18103;52.246;8.052;2023-04-22T01:13:41;99669.25;;;13.52;73.91
31483;BME280;18103;52.246;8.052;2023-04-22T01:16:09;99670.47;;;13.40;75.45
31483;BME280;18103;52.246;8.052;2023-04-22T01:18:37;99669.97;;;13.37;75.82
31483;BME280;18103;52.246;8.052;2023-04-22T01:21:05;99670.44;;;13.32;75.86
31483;BME280;18103;52.246;8.052;2023-04-22T01:23:31;99665.66;;;13.17;76.36
31483;BME280;18103;52.246;8.052;2023-04-22T01:25:57;99669.91;;;13.10;75.73
31483;BME280;18103;52.246;8.052;2023-04-22T01:28:23;99675.75;;;13.14;76.49
31483;BME280;18103;52.246;8.052;2023-04-22T01:30:48;99672.97;;;12.97;77.57
31483;BME280;18103;52.246;8.052;2023-04-22T01:33:15;99674.50;;;13.00;77.42
31483;BME280;18103;52.246;8.052;2023-04-22T01:35:40;99681.38;;;12.93;75.93
31483;BME280;18103;52.246;8.052;2023-04-22T01:38:07;99672.00;;;12.80;77.28
31483;BME280;18103;52.246;8.052;2023-04-22T01:40:33;99686.13;;;12.89;76.42
31483;BME280;18103;52.246;8.052;2023-04-22T01:43:01;99683.41;;;12.99;75.89
31483;BME280;18103;52.246;8.052;2023-04-22T01:45:27;99680.69;;;12.91;75.86
31483;BME280;18103;52.246;8.052;2023-04-22T01:47:53;99679.72;;;12.92;76.01
31483;BME280;18103;52.246;8.052;2023-04-22T01:50:18;99677.38;;;12.89;74.79
31483;BME280;18103;52.246;8.052;2023-04-22T01:52:46;99679.47;;;12.85;74.37
31483;BME280;18103;52.246;8.052;2023-04-22T01:55:12;99686.53;;;12.76;74.95
31483;BME280;18103;52.246;8.052;2023-04-22T01:57:41;99674.97;;;12.77;74.36
31483;BME280;18103;52.246;8.052;2023-04-22T02:00:07;99672.81;;;12.81;73.76
31483;BME280;18103;52.246;8.052;2023-04-22T02:02:33;99665.78;;;12.72;73.26
31483;BME280;18103;52.246;8.052;2023-04-22T02:05:01;99663.75;;;12.65;73.15
31483;BME280;18103;52.246;8.052;2023-04-22T02:07:29;99680.09;;;12.61;73.68
31483;BME280;18103;52.246;8.052;2023-04-22T02:09:54;99673.81;;;12.62;73.67
31483;BME280;18103;52.246;8.052;2023-04-22T02:12:20;99677.69;;;12.68;73.72
31483;BME280;18103;52.246;8.052;2023-04-22T02:14:45;99663.16;;;12.54;74.03
31483;BME280;18103;52.246;8.052;2023-04-22T02:17:13;99664.19;;;12.43;75.16
31483;BME280;18103;52.246;8.052;2023-04-22T02:19:38;99666.00;;;12.42;75.35
31483;BME280;18103;52.246;8.052;2023-04-22T02:22:06;99660.31;;;12.37;74.25
31483;BME280;18103;52.246;8.052;2023-04-22T02:24:32;99662.28;;;12.35;73.97
31483;BME280;18103;52.246;8.052;2023-04-22T02:26:57;99665.63;;;12.37;72.75
31483;BME280;18103;52.246;8.052;2023-04-22T02:29:22;99665.56;;;12.19;71.75
31483;BME280;18103;52.246;8.052;2023-04-22T02:31:48;99669.41;;;12.07;71.19
31483;BME280;18103;52.246;8.052;2023-04-22T02:34:13;99661.31;;;12.08;70.45
31483;BME280;18103;52.246;8.052;2023-04-22T02:36:39;99664.81;;;12.09;69.46
31483;BME280;18103;52.246;8.052;2023-04-22T02:39:06;99655.59;;;12.13;69.30
31483;BME280;18103;52.246;8.052;2023-04-22T02:41:32;99663.38;;;12.14;69.08
31483;BME280;18103;52.246;8.052;2023-04-22T02:43:57;99665.88;;;12.16;68.74
31483;BME280;18103;52.246;8.052;2023-04-22T02:46:22;99659.38;;;12.10;69.08
31483;BME280;18103;52.246;8.052;2023-04-22T02:48:51;99672.16;;;12.15;68.15
31483;BME280;18103;52.246;8.052;2023-04-22T02:51:19;99686.25;;;12.06;68.56
31483;BME280;18103;52.246;8.052;2023-04-22T02:53:49;99658.91;;;12.15;67.85
31483;BME280;18103;52.246;8.052;2023-04-22T02:56:16;99658.91;;;12.15;67.69
31483;BME280;18103;52.246;8.052;2023-04-22T02:58:42;99660.44;;;12.18;67.95
31483;BME280;18103;52.246;8.052;2023-04-22T03:01:09;99657.41;;;12.12;67.97
31483;BME280;18103;52.246;8.052;2023-04-22T03:03:37;99660.03;;;12.12;67.91
31483;BME280;18103;52.246;8.052;2023-04-22T03:06:03;99662.22;;;12.17;67.77
31483;BME280;18103;52.246;8.052;2023-04-22T03:08:28;99661.66;;;12.23;67.70
31483;BME280;18103;52.246;8.052;2023-04-22T03:10:54;99661.97;;;12.20;67.73
31483;BME280;18103;52.246;8.052;2023-04-22T03:13:19;99652.03;;;12.22;67.58
31483;BME280;18103;52.246;8.052;2023-04-22T03:15:44;99656.22;;;12.25;67.85
31483;BME280;18103;52.246;8.052;2023-04-22T03:18:10;99654.03;;;12.20;67.77
31483;BME280;18103;52.246;8.052;2023-04-22T03:20:35;99652.19;;;12.21;67.78
31483;BME280;18103;52.246;8.052;2023-04-22T03:23:03;99648.94;;;12.27;67.72
31483;BME280;18103;52.246;8.052;2023-04-22T03:25:28;99650.09;;;12.24;68.13
31483;BME280;18103;52.246;8.052;2023-04-22T03:27:53;99655.91;;;12.28;67.60
31483;BME280;18103;52.246;8.052;2023-04-22T03:30:19;99653.25;;;12.28;67.67
31483;BME280;18103;52.246;8.052;2023-04-22T03:32:44;99647.53;;;12.32;67.65
31483;BME280;18103;52.246;8.052;2023-04-22T03:35:12;99655.50;;;12.32;67.83
31483;BME280;18103;52.246;8.052;2023-04-22T03:37:38;99654.63;;;12.32;67.90
31483;BME280;18103;52.246;8.052;2023-04-22T03:40:03;99652.53;;;12.36;68.00
31483;BME280;18103;52.246;8.052;2023-04-22T03:42:30;99645.41;;;12.36;67.84
31483;BME280;18103;52.246;8.052;2023-04-22T03:44:55;99642.09;;;12.34;67.93
31483;BME280;18103;52.246;8.052;2023-04-22T03:47:20;99646.63;;;12.42;nan
31483;BME280;18103;52.246;8.052;2023-04-22T03:49:48;99647.09;;;12.37;68.02
31483;BME280;18103;52.246;8.052;2023-04-22T03:52:16;99640.50;;;12.41;68.10
31483;BME280;18103;52.246;8.052;2023-04-22T03:54:41;99644.44;;;12.37;67.89
31483;BME280;18103;52.246;8.052;2023-04-22T03:57:08;99649.59;;;12.39;68.27
31483;BME280;18103;52.246;8.052;2023-04-22T03:59:34;99634.97;;;12.35;68.71
31483;BME280;18103;52.246;8.052;2023-04-22T04:01:59;99638.19;;;12.38;68.36
31483;BME280;18103;52.246;8.052;2023-04-22T04:04:27;99638.44;;;12.35;68.39
31483;BME280;18103;52.246;8.052;2023-04-22T04:06:57;99641.34;;;12.42;67.97
31483;BME280;18103;52.246;8.052;2023-04-22T04:09:25;99634.25;;;12.42;68.03
31483;BME280;18103;52.246;8.052;2023-04-22T04:11:50;99635.66;;;12.37;68.23
31483;BME280;18103;52.246;8.052;2023-04-22T04:14:16;99634.69;;;12.38;68.39
31483;BME280;18103;52.246;8.052;2023-04-22T04:16:41;99641.50;;;12.40;68.92
31483;BME280;18103;52.246;8.052;2023-04-22T04:19:06;99628.41;;;12.39;67.91
31483;BME280;18103;52.246;8.052;2023-04-22T04:21:34;99634.81;;;12.36;68.32
31483;BME280;18103;52.246;8.052;2023-04-22T04:24:01;99635.53;;;12.38;68.46
31483;BME280;18103;52.246;8.052;2023-04-22T04:26:26;99634.00;;;12.36;68.49
31483;BME280;18103;52.246;8.052;2023-04-22T04:28:53;99633.56;;;12.40;68.17
31483;BME280;18103;52.246;8.052;2023-04-22T04:31:18;99630.75;;;12.42;67.51
31483;BME280;18103;52.246;8.052;2023-04-22T04:33:44;99627.28;;;12.41;68.02
31483;BME280;18103;52.246;8.052;2023-04-22T04:36:11;99629.78;;;12.43;67.97
31483;BME280;18103;52.246;8.052;2023-04-22T04:38:41;99629.94;;;12.41;68.18
31483;BME280;18103;52.246;8.052;2023-04-22T04:41:09;99632.41;;;12.43;68.05
31483;BME280;18103;52.246;8.052;2023-04-22T04:43:34;99626.16;;;12.44;68.41
31483;BME280;18103;52.246;8.052;2023-04-22T04:46:00;99632.28;;;12.44;68.02
31483;BME280;18103;52.246;8.052;2023-04-22T04:48:26;99627.94;;;12.43;68.18
31483;BME280;18103;52.246;8.052;2023-04-22T04:50:52;99627.13;;;12.43;68.42
31483;BME280;18103;52.246;8.052;2023-04-22T04:53:21;99636.75;;;12.44;68.63
31483;BME280;18103;52.246;8.052;2023-04-22T04:55:49;99626.81;;;12.46;68.58
31483;BME280;18103;52.246;8.052;2023-04-22T04:58:15;99630.25;;;12.38;68.52
31483;BME280;18103;52.246;8.052;2023-04-22T05:00:40;99636.59;;;12.45;68.31
31483;BME280;18103;52.246;8.052;2023-04-22T05:03:05;99634.91;;;12.44;68.41
31483;BME280;18103;52.246;8.052;2023-04-22T05:05:31;99631.44;;;12.44;68.79
31483;BME280;18103;52.246;8.052;2023-04-22T05:07:56;99625.69;;;12.48;68.68
31483;BME280;18103;52.246;8.052;2023-04-22T05:10:21;99625.00;;;12.46;68.60
31483;BME280;18103;52.246;8.052;2023-04-22T05:12:47;99630.38;;;12.55;68.76
31483;BME280;18103;52.246;8.052;2023-04-22T05:15:15;99619.94;;;12.53;68.91
31483;BME280;18103;52.246;8.052;2023-04-22T05:17:40;99637.72;;;12.61;68.96
31483;BME280;18103;52.246;8.052;2023-04-22T05:20:11;99623.59;;;12.52;69.44
31483;BME280;18103;52.246;8.052;2023-04-22T05:22:36;99620.88;;;12.62;69.36
31483;BME280;18103;52.246;8.052;2023-04-22T05:25:03;99621.16;;;12.59;69.42
31483;BME280;18103;52.246;8.052;2023-04-22T05:27:28;99629.00;;;12.69;69.27
31483;BME280;18103;52.246;8.052;2023-04-22T05:29:55;99631.06;;;12.75;69.51
31483;BME280;18103;52.246;8.052;2023-04-22T05:32:20;99633.50;;;12.68;69.72
31483;BME280;18103;52.246;8.052;2023-04-22T05:34:46;99624.56;;;12.69;69.44
31483;BME280;18103;52.246;8.052;2023-04-22T05:37:11;99632.59;;;12.77;69.37
31483;BME280;18103;52.246;8.052;2023-04-22T05:39:36;99629.78;;;12.79;69.17
31483;BME280;18103;52.246;8.052;2023-04-22T05:42:04;99626.97;;;12.80;69.28
31483;BME280;18103;52.246;8.052;2023-04-22T05:44:33;99625.47;;;12.78;68.98
31483;BME280;18103;52.246;8.052;2023-04-22T05:46:58;99644.50;;;12.81;69.13
31483;BME280;18103;52.246;8.052;2023-04-22T05:49:23;99638.22;;;12.82;69.13
31483;BME280;18103;52.246;8.052;2023-04-22T05:51:51;99636.28;;;12.84;69.21
31483;BME280;18103;52.246;8.052;2023-04-22T05:54:19;99639.13;;;12.91;68.98
31483;BME280;18103;52.246;8.052;2023-04-22T05:56:51;99640.81;;;12.92;68.90
31483;BME280;18103;52.246;8.052;2023-04-22T05:59:17;99629.59;;;12.98;68.56
31483;BME280;18103;52.246;8.052;2023-04-22T06:01:44;99637.41;;;13.00;68.74
31483;BME280;18103;52.246;8.052;2023-04-22T06:04:10;99633.44;;;13.04;68.47
31483;BME280;18103;52.246;8.052;2023-04-22T06:06:38;99639.41;;;13.06;68.70
31483;BME280;18103;52.246;8.052;2023-04-22T06:09:06;99639.78;;;13.11;67.82
31483;BME280;18103;52.246;8.052;2023-04-22T06:11:32;99636.34;;;13.19;68.47
31483;BME280;18103;52.246;8.052;2023-04-22T06:14:00;99630.78;;;13.22;68.13
31483;BME280;18103;52.246;8.052;2023-04-22T06:16:26;99631.44;;;13.24;68.04
31483;BME280;18103;52.246;8.052;2023-04-22T06:18:51;99621.38;;;13.28;67.96
31483;BME280;18103;52.246;8.052;2023-04-22T06:21:19;99618.06;;;13.34;67.35
31483;BME280;18103;52.246;8.052;2023-04-22T06:23:49;99611.66;;;13.37;67.47
31483;BME280;18103;52.246;8.052;2023-04-22T06:26:17;99614.81;;;13.40;67.58
31483;BME280;18103;52.246;8.052;2023-04-22T06:28:43;99613.22;;;13.47;67.10
31483;BME280;18103;52.246;8.052;2023-04-22T06:31:08;99614.69;;;13.50;67.40
31483;BME280;18103;52.246;8.052;2023-04-22T06:33:33;99608.78;;;13.56;67.02
31483;BME280;18103;52.246;8.052;2023-04-22T06:35:59;99609.59;;;13.57;66.57
31483;BME280;18103;52.246;8.052;2023-04-22T06:38:24;99609.16;;;13.61;67.28
31483;BME280;18103;52.246;8.052;2023-04-22T06:40:54;99618.47;;;13.74;66.92
31483;BME280;18103;52.246;8.052;2023-04-22T06:43:19;99606.72;;;13.76;67.01
31483;BME280;18103;52.246;8.052;2023-04-22T06:45:45;99611.53;;;13.73;66.93
31483;BME280;18103;52.246;8.052;2023-04-22T06:48:15;99609.25;;;13.86;66.65
31483;BME280;18103;52.246;8.052;2023-04-22T06:50:42;99611.22;;;13.84;66.92
31483;BME280;18103;52.246;8.052;2023-04-22T06:53:08;99609.38;;;13.76;66.32
31483;BME280;18103;52.246;8.052;2023-04-22T06:55:34;99604.78;;;13.86;66.35
31483;BME280;18103;52.246;8.052;2023-04-22T06:57:59;99598.34;;;13.97;66.46
31483;BME280;18103;52.246;8.052;2023-04-22T07:00:25;99605.31;;;13.98;66.24
31483;BME280;18103;52.246;8.052;2023-04-22T07:02:55;99608.66;;;14.09;66.26
31483;BME280;18103;52.246;8.052;2023-04-22T07:05:21;99610.47;;;14.08;66.25
31483;BME280;18103;52.246;8.052;2023-04-22T07:07:46;99610.84;;;14.13;66.13
31483;BME280;18103;52.246;8.052;2023-04-22T07:10:14;99603.53;;;14.15;65.73
31483;BME280;18103;52.246;8.052;2023-04-22T07:12:40;99604.03;;;14.19;65.66
31483;BME280;18103;52.246;8.052;2023-04-22T07:15:06;99606.06;;;14.33;66.00
31483;BME280;18103;52.246;8.052;2023-04-22T07:17:31;99610.72;;;14.40;66.18
31483;BME280;18103;52.246;8.052;2023-04-22T07:19:57;99603.09;;;14.45;65.58
31483;BME280;18103;52.246;8.052;2023-04-22T07:22:24;99610.88;;;14.46;64.69
31483;BME280;18103;52.246;8.052;2023-04-22T07:24:50;99614.28;;;14.65;64.90
31483;BME280;18103;52.246;8.052;2023-04-22T07:27:15;99612.59;;;14.72;64.62
31483;BME280;18103;52.246;8.052;2023-04-22T07:29:41;99607.59;;;14.77;64.03
31483;BME280;18103;52.246;8.052;2023-04-22T07:32:11;99601.47;;;14.93;64.41
31483;BME280;18103;52.246;8.052;2023-04-22T07:34:36;99589.34;;;14.99;64.15
31483;BME280;18103;52.246;8.052;2023-04-22T07:37:01;99592.81;;;15.16;64.01
31483;BME280;18103;52.246;8.052;2023-04-22T07:39:27;99601.41;;;15.26;63.31
31483;BME280;18103;52.246;8.052;2023-04-22T07:41:52;99603.22;;;15.42;63.73
31483;BME280;18103;52.246;8.052;2023-04-22T07:44:18;99600.91;;;15.39;63.41
31483;BME280;18103;52.246;8.052;2023-04-22T07:46:49;99614.84;;;15.41;63.08
31483;BME280;18103;52.246;8.052;2023-04-22T07:49:17;99594.72;;;15.47;62.71
31483;BME280;18103;52.246;8.052;2023-04-22T07:51:43;99604.19;;;15.49;63.13
31483;BME280;18103;52.246;8.052;2023-04-22T07:54:14;99584.41;;;15.52;63.10
31483;BME280;18103;52.246;8.052;2023-04-22T07:56:39;99596.47;;;15.71;62.93
31483;BME280;18103;52.246;8.052;2023-04-22T07:59:07;99597.59;;;15.85;63.22
31483;BME280;18103;52.246;8.052;2023-04-22T08:01:32;99589.97;;;15.82;62.35
31483;BME280;18103;52.246;8.052;2023-04-22T08:03:58;99591.25;;;15.94;62.51
31483;BME280;18103;52.246;8.052;2023-04-22T08:06:25;99607.13;;;16.11;62.77
31483;BME280;18103;52.246;8.052;2023-04-22T08:08:54;99595.59;;;16.18;62.77
31483;BME280;18103;52.246;8.052;2023-04-22T08:11:19;99601.88;;;16.25;62.15
31483;BME280;18103;52.246;8.052;2023-04-22T08:13:45;99595.72;;;16.25;61.58
31483;BME280;18103;52.246;8.052;2023-04-22T08:16:10;99607.94;;;16.42;62.58
31483;BME280;18103;52.246;8.052;2023-04-22T08:18:36;99600.94;;;16.41;61.40
31483;BME280;18103;52.246;8.052;2023-04-22T08:21:01;99601.13;;;16.63;61.25
31483;BME280;18103;52.246;8.052;2023-04-22T08:23:27;99598.94;;;16.67;60.30
31483;BME280;18103;52.246;8.052;2023-04-22T08:25:54;99607.06;;;16.73;60.10
31483;BME280;18103;52.246;8.052;2023-04-22T08:28:22;99602.28;;;16.84;59.15
31483;BME280;18103;52.246;8.052;2023-04-22T08:30:47;99592.16;;;17.02;58.26
31483;BME280;18103;52.246;8.052;2023-04-22T08:33:13;99593.75;;;17.12;58.02
31483;BME280;18103;52.246;8.052;2023-04-22T08:35:39;99588.78;;;17.23;58.31
31483;BME280;18103;52.246;8.052;2023-04-22T08:38:04;99585.66;;;17.35;57.60
31483;BME280;18103;52.246;8.052;2023-04-22T08:40:29;99580.41;;;17.56;56.79
31483;BME280;18103;52.246;8.052;2023-04-22T08:42:57;99582.91;;;17.73;56.19
31483;BME280;18103;52.246;8.052;2023-04-22T08:45:23;99585.19;;;17.76;56.13
31483;BME280;18103;52.246;8.052;2023-04-22T08:47:48;99584.16;;;17.92;55.49
31483;BME280;18103;52.246;8.052;2023-04-22T08:50:19;99582.13;;;17.79;55.80
31483;BME280;18103;52.246;8.052;2023-04-22T08:52:49;99573.75;;;17.82;55.37
31483;BME280;18103;52.246;8.052;2023-04-22T08:55:17;99575.81;;;17.95;55.35
31483;BME280;18103;52.246;8.052;2023-04-22T08:57:46;99571.47;;;17.94;54.33
31483;BME280;18103;52.246;8.052;2023-04-22T09:00:15;99575.03;;;18.01;54.14
31483;BME280;18103;52.246;8.052;2023-04-22T09:02:41;99573.34;;;18.15;54.29
31483;BME280;18103;52.246;8.052;2023-04-22T09:05:09;99571.06;;;18.12;53.79
31483;BME280;18103;52.246;8.052;2023-04-22T09:07:37;99563.16;;;17.89;53.50
31483;BME280;18103;52.246;8.052;2023-04-22T09:10:03;99555.22;;;18.10;53.93
31483;BME280;18103;52.246;8.052;2023-04-22T09:12:28;99560.06;;;18.43;53.84
31483;BME280;18103;52.246;8.052;2023-04-22T09:14:55;99563.16;;;18.69;53.51
31483;BME280;18103;52.246;8.052;2023-04-22T09:17:33;99555.25;;;18.82;53.80
31483;BME280;18103;52.246;8.052;2023-04-22T09:20:00;99548.13;;;18.89;52.90
31483;BME280;18103;52.246;8.052;2023-04-22T09:22:37;99558.59;;;19.19;53.04
31483;BME280;18103;52.246;8.052;2023-04-22T09:25:04;99548.94;;;18.90;51.78
31483;BME280;18103;52.246;8.052;2023-04-22T09:27:29;99554.94;;;18.92;51.52
31483;BME280;18103;52.246;8.052;2023-04-22T09:29:54;99553.75;;;19.01;50.76
31483;BME280;18103;52.246;8.052;2023-04-22T09:32:26;99541.66;;;19.05;51.72
31483;BME280;18103;52.246;8.052;2023-04-22T09:34:53;99541.19;;;19.30;51.98
31483;BME280;18103;52.246;8.052;2023-04-22T09:37:26;99543.81;;;19.23;50.87
31483;BME280;18103;52.246;8.052;2023-04-22T09:39:52;99556.19;;;19.24;50.97
31483;BME280;18103;52.246;8.052;2023-04-22T09:42:19;99551.06;;;19.29;51.23
31483;BME280;18103;52.246;8.052;2023-04-22T09:44:48;99550.91;;;19.38;50.72
31483;BME280;18103;52.246;8.052;2023-04-22T09:47:19;99546.00;;;19.48;51.38
31483;BME280;18103;52.246;8.052;2023-04-22T09:49:46;99540.66;;;19.48;50.39
31483;BME280;18103;52.246;8.052;2023-04-22T09:52:24;99541.41;;;19.77;51.01
31483;BME280;18103;52.246;8.052;2023-04-22T09:54:52;99538.53;;;19.78;50.26
31483;BME280;18103;52.246;8.052;2023-04-22T09:57:20;99539.53;;;19.77;49.92
31483;BME280;18103;52.246;8.052;2023-04-22T09:59:46;99545.31;;;19.74;50.33
31483;BME280;18103;52.246;8.052;2023-04-22T10:02:16;99537.75;;;19.85;50.67
31483;BME280;18103;52.246;8.052;2023-04-22T10:04:45;99533.84;;;19.87;50.40
31483;BME280;18103;52.246;8.052;2023-04-22T10:07:12;99521.53;;;20.20;49.97
31483;BME280;18103;52.246;8.052;2023-04-22T10:09:40;99519.06;;;20.38;49.75
31483;BME280;18103;52.246;8.052;2023-04-22T10:12:06;99517.84;;;20.41;49.33
31483;BME280;18103;52.246;8.052;2023-04-22T10:14:31;99510.81;;;20.40;49.08
31483;BME280;18103;52.246;8.052;2023-04-22T10:17:00;99504.84;;;20.24;48.87
31483;BME280;18103;52.246;8.052;2023-04-22T10:19:27;99498.47;;;20.32;49.12
31483;BME280;18103;52.246;8.052;2023-04-22T10:21:56;99495.75;;;20.18;48.99
31483;BME280;18103;52.246;8.052;2023-04-22T10:24:27;99501.78;;;20.54;49.70
31483;BME280;18103;52.246;8.052;2023-04-22T10:29:19;99483.81;;;20.28;49.07
31483;BME280;18103;52.246;8.052;2023-04-22T10:32:02;99501.75;;;20.34;49.83
31483;BME280;18103;52.246;8.052;2023-04-22T10:34:29;99493.72;;;20.27;49.31
31483;BME280;18103;52.246;8.052;2023-04-22T10:37:05;99479.28;;;20.62;49.50
31483;BME280;18103;52.246;8.052;2023-04-22T10:39:30;99467.53;;;20.63;49.28
31483;BME280;18103;52.246;8.052;2023-04-22T10:44:29;99462.59;;;20.60;48.91
31483;BME280;18103;52.246;8.052;2023-04-22T10:47:09;99469.19;;;20.50;47.92
31483;BME280;18103;52.246;8.052;2023-04-22T10:49:37;99472.06;;;20.62;48.42
31483;BME280;18103;52.246;8.052;2023-04-22T10:52:05;99472.88;;;20.56;47.19
31483;BME280;18103;52.246;8.052;2023-04-22T10:59:29;99453.63;;;21.06;47.21
31483;BME280;18103;52.246;8.052;2023-04-22T11:02:00;99453.63;;;21.13;47.49
31483;BME280;18103;52.246;8.052;2023-04-22T11:04:25;99449.50;;;21.03;47.32
31483;BME280;18103;52.246;8.052;2023-04-22T11:15:07;99442.06;;;21.64;46.94
31483;BME280;18103;52.246;8.052;2023-04-22T11:17:34;99451.97;;;21.64;46.56
31483;BME280;18103;52.246;8.052;2023-04-22T11:20:00;99444.78;;;21.51;46.45
31483;BME280;18103;52.246;8.052;2023-04-22T11:22:26;99443.00;;;21.77;46.99
31483;BME280;18103;52.246;8.052;2023-04-22T11:24:59;99428.34;;;21.73;46.72
31483;BME280;18103;52.246;8.052;2023-04-22T11:27:31;99441.03;;;21.59;45.98
31483;BME280;18103;52.246;8.052;2023-04-22T11:30:03;99441.78;;;21.73;46.11
31483;BME280;18103;52.246;8.052;2023-04-22T11:32:36;99431.25;;;21.71;45.99
31483;BME280;18103;52.246;8.052;2023-04-22T11:35:08;99430.16;;;21.85;45.53
31483;BME280;18103;52.246;8.052;2023-04-22T11:37:45;99438.16;;;21.92;46.04
31483;BME280;18103;52.246;8.052;2023-04-22T11:40:22;99430.66;;;22.01;45.15
31483;BME280;18103;52.246;8.052;2023-04-22T11:42:49;99439.66;;;22.13;45.08
31483;BME280;18103;52.246;8.052;2023-04-22T11:45:20;99429.81;;;22.00;43.98
31483;BME280;18103;52.246;8.052;2023-04-22T11:47:51;99418.03;;;22.27;44.33
31483;BME280;18103;52.246;8.052;2023-04-22T11:50:20;99435.59;;;22.36;44.70
31483;BME280;18103;52.246;8.052;2023-04-22T11:55:19;99406.31;;;22.65;44.42
31483;BME280;18103;52.246;8.052;2023-04-22T11:57:56;99410.31;;;22.81;44.25
31483;BME280;18103;52.246;8.052;2023-04-22T12:00:23;99400.53;;;22.43;43.39
31483;BME280;18103;52.246;8.052;2023-04-22T12:03:06;99405.91;;;22.43;44.41
31483;BME280;18103;52.246;8.052;2023-04-22T12:06:04;99409.53;;;22.55;42.28
31483;BME280;18103;52.246;8.052;2023-04-22T12:08:30;99410.75;;;22.78;42.69
31483;BME280;18103;52.246;8.052;2023-04-22T12:10:58;99388.84;;;22.74;41.98
31483;BME280;18103;52.246;8.052;2023-04-22T12:15:54;99391.09;;;22.77;41.61
31483;BME280;18103;52.246;8.052;2023-04-22T12:18:35;99388.03;;;22.92;41.54
31483;BME280;18103;52.246;8.052;2023-04-22T12:23:45;99386.22;;;23.04;41.92
31483;BME280;18103;52.246;8.052;2023-04-22T12:26:18;99387.25;;;23.22;41.35
31483;BME280;18103;52.246;8.052;2023-04-22T12:28:47;99401.88;;;23.45;41.47
31483;BME280;18103;52.246;8.052;2023-04-22T12:31:15;99385.91;;;23.73;41.16
31483;BME280;18103;52.246;8.052;2023-04-22T12:33:41;99391.88;;;23.75;40.62
31483;BME280;18103;52.246;8.052;2023-04-22T12:36:07;99396.59;;;23.80;40.86
31483;BME280;18103;52.246;8.052;2023-04-22T12:38:34;99397.50;;;24.16;40.04
31483;BME280;18103;52.246;8.052;2023-04-22T12:41:00;99406.69;;;23.85;40.72
31483;BME280;18103;52.246;8.052;2023-04-22T12:43:26;99401.38;;;23.78;40.21
31483;BME280;18103;52.246;8.052;2023-04-22T12:45:51;99394.56;;;24.06;40.27
31483;BME280;18103;52.246;8.052;2023-04-22T12:48:17;99400.56;;;24.32;40.34
31483;BME280;18103;52.246;8.052;2023-04-22T12:50:42;99404.72;;;23.92;40.16
31483;BME280;18103;52.246;8.052;2023-04-22T12:53:10;99384.81;;;23.93;39.99
31483;BME280;18103;52.246;8.052;2023-04-22T12:55:38;99383.91;;;24.35;39.42
31483;BME280;18103;52.246;8.052;2023-04-22T12:58:05;99373.22;;;24.28;39.61
31483;BME280;18103;52.246;8.052;2023-04-22T13:00:32;99374.97;;;24.46;39.89
31483;BME280;18103;52.246;8.052;2023-04-22T13:03:00;99365.34;;;25.15;40.30
31483;BME280;18103;52.246;8.052;2023-04-22T13:05:25;99366.75;;;24.65;39.95
31483;BME280;18103;52.246;8.052;2023-04-22T13:07:54;99368.50;;;24.59;40.42
31483;BME280;18103;52.246;8.052;2023-04-22T13:10:22;99377.44;;;23.88;40.25
31483;BME280;18103;52.246;8.052;2023-04-22T13:12:55;99355.41;;;23.91;40.56
31483;BME280;18103;52.246;8.052;2023-04-22T13:15:20;99354.09;;;24.06;40.48
31483;BME280;18103;52.246;8.052;2023-04-22T13:17:46;99353.53;;;24.16;40.98
31483;BME280;18103;52.246;8.052;2023-04-22T13:20:14;99357.28;;;24.03;40.37
31483;BME280;18103;52.246;8.052;2023-04-22T13:22:40;99370.00;;;23.84;40.15
31483;BME280;18103;52.246;8.052;2023-04-22T13:25:08;99364.66;;;23.53;40.31